KFBG/FBG METAR and TAF weather

Enter ICAO airport designator
Station Type Date Time Source
KFBG METAR 2019/12/14 17:08 UTC NOAA

KFBG 141708Z AUTO 24007KT 10SM BKN013 BKN055 13/11 A2952 RMK AO2 CIG 013V055 SLP999 $


Station Type Date Time Source
KFBG Decoded METAR 2019/12/14 17:08 UTC NOAA

Fort Bragg / Simmons Army Airfield, NC, United States (KFBG) 35-08N 078-56W 74M
Dec 14, 2019 - 12:08 PM EST / 2019.12.14 1708 UTC
Wind: from the WSW (240 degrees) at 8 MPH (7 KT):0
Visibility: 10 mile(s):0
Sky conditions: mostly cloudy
Temperature: 55 F (13 C)
Dew Point: 51 F (11 C)
Relative Humidity: 87%
Pressure (altimeter): 29.52 in. Hg (999 hPa)
ob: KFBG 141708Z AUTO 24007KT 10SM BKN013 BKN055 13/11 A2952 RMK AO2 CIG 013V055 SLP999
cycle: 17

Station Type Date Time Source
KFBG TAF 2019/12/14 15:36 UTC NOAA

TAF TAF
AMD KFBG 141525Z 1415/1516 25010G20KT 9999 OVC006 QNH2955INS
TEMPO 1415/1418 OVC010
BECMG 1417/1418 27010G20KT 9999 BKN010 QNH2957INS
BECMG 1420/1421 27012KT 9999 SKC QNH2972INS TX13/1420Z TN04/1510Z

Example: see airport list